Vremea acum in Dej - Romania

Vrei sa afli care e starea vremii acum in Cluj - Romania? Dorim sa iti furnizam starea vremii pentru Cluj - Romania. Starea vremii Cluj - Romania pentru astazi.

Vremea acum in Dej

Temperatura: 7.6 °C

Este: Senin
Se simte ca: 7.6 °C
Innorat: 4 %
Precipitatii: 0 %
Presiune atmosferica: 1018 hPa
Umiditate: 80%
Vizibilitate: 10 km
Vantul bate din NNE cu 3.6 km/h

Evolutia vremii in Dej pe ore

Ora: 04:00
Senin
Temperatura: 7.6°C
Sansa de precipitatii: 0%
Ora Descriere Temp Se simte Precipitatii Umiditate Vant
00:00Senin9.4°9.6°0%77%NNW 3.6 KM/H
01:00Senin8.9°8.9°0%78%NNW 2.5 KM/H
02:00Senin8.4°8.4°0%78%NNE 1.8 KM/H
03:00Senin0%80%NNE 2.2 KM/H
04:00Senin7.6°7.6°0%80%NNE 3.6 KM/H
05:00Senin7.2°7.2°0%81%ENE 2.2 KM/H
06:00Senin6.8°6.8°0%82%ESE 2.5 KM/H
07:00Senin7.7°7.9°0%80%ESE 3.2 KM/H
08:00Senin11.9°12.2°0%74%ESE 4 KM/H
09:00Senin14.4°14.6°0%68%ESE 5.4 KM/H
10:00Senin16.4°16.4°0%63%SE 6.8 KM/H
11:00Senin18.2°18.2°0%59%SE 8.6 KM/H
12:00Senin19.8°19.8°0%54%SE 9 KM/H
13:00Senin21.2°21.2°0%50%SE 8.6 KM/H
14:00Senin22.2°24.4°0%46%SE 7.9 KM/H
15:00Senin23°24.5°0%43%SE 7.6 KM/H
16:00Senin23.3°24.5°0%41%SE 6.8 KM/H
17:00Senin23.4°24.5°0%39%SE 5 KM/H
18:00Senin23.2°24.4°0%39%S 2.5 KM/H
19:00Senin22.5°24.6°0%51%SSW 1.4 KM/H
20:00Senin16.8°16.9°0%54%N 0.7 KM/H
21:00Senin14.3°14.3°0%57%NE 1.8 KM/H
22:00Senin13.2°13.2°0%59%NE 1.1 KM/H
23:00Senin12.4°12.5°0%62%NE 0.7 KM/H




tutorials